Time;durP1;ratioP1;P1;durP2;ratioP2;P2;SDS_P1;SDS_P2;PMS_P1;PMS_P2;Temp;Humidity;BMP_temperature;BMP_pressure;BME280_temperature;BME280_humidity;BME280_pressure;Samples;Min_cycle;Max_cycle;Signal;HPM_P1;HPM_P2
2023/11/17 00:00:35;;;;;;;;;;;;;;;;;;5089272;28;20339;-81
2023/11/17 00:03:03;;;;;;;;;;;;;;;;;;5082456;28;19978;-81
2023/11/17 00:05:30;;;;;;;;;;;;;;;;;;5073761;28;19925;-81
2023/11/17 00:07:57;;;;;;;;;;;;;;;;;;5073676;28;19925;-81
2023/11/17 00:10:24;;;;;;;;;;;;;;;;;;5084785;28;20007;-80
2023/11/17 00:12:51;;;;;;;;;;;;;;;;;;5092799;28;19924;-81
2023/11/17 00:15:18;;;;;;;;;;;;;;;;;;5096653;28;20534;-80
2023/11/17 00:17:45;;;;;;;;;;;;;;;;;;5096879;28;20379;-80
2023/11/17 00:20:12;;;;;;;;;;;;;;;;;;5096978;28;19931;-80
2023/11/17 00:22:39;;;;;;;;;;;;;;;;;;5088128;28;20390;-79
2023/11/17 00:25:06;;;;;;;;;;;;;;;;;;5076484;28;19931;-80
2023/11/17 00:27:37;;;;;;;;;;;;;;;;;;5076361;28;19956;-80
2023/11/17 00:30:04;;;;;;;;;;;;;;;;;;5076962;28;19955;-80
2023/11/17 00:32:31;;;;;;;;;;;;;;;;;;5080031;28;19932;-80
2023/11/17 00:34:58;;;;;;;;;;;;;;;;;;5085389;28;19931;-80
2023/11/17 00:37:26;;;;;;;;;;;;;;;;;;5096097;28;20015;-79
2023/11/17 00:39:53;;;;;;;;;;;;;;;;;;5095134;28;20303;-79
2023/11/17 00:42:20;;;;;;;;;;;;;;;;;;5076062;28;19963;-78
2023/11/17 00:44:47;;;;;;;;;;;;;;;;;;5085494;28;20043;-77
2023/11/17 00:47:15;;;;;;;;;;;;;;;;;;5089148;28;19924;-78
2023/11/17 00:49:42;;;;;;;;;;;;;;;;;;5078973;28;19967;-78
2023/11/17 00:52:09;;;;;;;;;;;;;;;;;;5077914;28;19932;-79
2023/11/17 00:54:42;;;;;;;;;;;;;;;;;;5080020;28;19945;-79
2023/11/17 00:57:10;;;;;;;;;;;;;;;;;;5094178;28;20382;-80
2023/11/17 00:59:37;;;;;;;;;;;;;;;;;;5095245;28;19924;-81
2023/11/17 01:02:04;;;;;;;;;;;;;;;;;;5092279;28;20359;-81
2023/11/17 01:04:32;;;;;;;;;;;;;;;;;;5080361;28;19925;-82
2023/11/17 01:06:59;;;;;;;;;;;;;;;;;;5086415;28;19930;-82
2023/11/17 01:09:26;;;;;;;;;;;;;;;;;;5076380;28;19970;-81
2023/11/17 01:11:53;;;;;;;;;;;;;;;;;;5091906;28;20373;-83
2023/11/17 01:14:20;;;;;;;;;;;;;;;;;;5093519;28;20015;-80
2023/11/17 01:16:48;;;;;;;;;;;;;;;;;;5075144;28;19925;-81
2023/11/17 01:19:15;;;;;;;;;;;;;;;;;;5075365;28;19978;-80
2023/11/17 01:21:42;;;;;;;;;;;;;;;;;;5084287;28;20379;-80
2023/11/17 01:24:09;;;;;;;;;;;;;;;;;;5095170;28;19924;-82
2023/11/17 01:26:36;;;;;;;;;;;;;;;;;;5095950;28;20007;-83
2023/11/17 01:29:04;;;;;;;;;;;;;;;;;;5095582;28;19990;-82
2023/11/17 01:31:31;;;;;;;;;;;;;;;;;;5093673;28;20010;-81
2023/11/17 01:33:58;;;;;;;;;;;;;;;;;;5094276;28;19924;-81
2023/11/17 01:36:25;;;;;;;;;;;;;;;;;;5095050;28;19924;-81
2023/11/17 01:38:53;;;;;;;;;;;;;;;;;;5094991;28;19988;-82
2023/11/17 01:41:20;;;;;;;;;;;;;;;;;;5093376;28;19924;-82
2023/11/17 01:43:47;;;;;;;;;;;;;;;;;;5089171;28;20023;-81
2023/11/17 01:46:14;;;;;;;;;;;;;;;;;;5075110;28;20334;-81
2023/11/17 01:48:41;;;;;;;;;;;;;;;;;;5074902;28;19959;-80
2023/11/17 01:51:08;;;;;;;;;;;;;;;;;;5078245;28;20003;-80
2023/11/17 01:53:35;;;;;;;;;;;;;;;;;;5082840;28;19931;-80
2023/11/17 01:56:04;;;;;;;;;;;;;;;;;;5074370;28;20345;-80
2023/11/17 01:58:33;;;;;;;;;;;;;;;;;;5083045;28;19931;-79
2023/11/17 02:01:00;;;;;;;;;;;;;;;;;;5092443;28;20386;-80
2023/11/17 02:03:27;;;;;;;;;;;;;;;;;;5093754;28;19935;-79
2023/11/17 02:05:54;;;;;;;;;;;;;;;;;;5093929;28;19956;-81
2023/11/17 02:08:21;;;;;;;;;;;;;;;;;;5093680;28;20287;-80
2023/11/17 02:10:50;;;;;;;;;;;;;;;;;;5091401;28;19928;-80
2023/11/17 02:13:20;;;;;;;;;;;;;;;;;;5073719;28;19924;-80
2023/11/17 02:15:47;;;;;;;;;;;;;;;;;;5083828;28;20310;-81
2023/11/17 02:18:15;;;;;;;;;;;;;;;;;;5094409;28;19928;-82
2023/11/17 02:20:44;;;;;;;;;;;;;;;;;;5079663;28;21619;-82
2023/11/17 02:23:15;;;;;;;;;;;;;;;;;;5097565;28;19931;-82
2023/11/17 02:25:44;;;;;;;;;;;;;;;;;;5094938;28;19946;-82
2023/11/17 02:28:12;;;;;;;;;;;;;;;;;;5078492;28;20529;-80
2023/11/17 02:30:40;;;;;;;;;;;;;;;;;;5075884;28;19925;-79
2023/11/17 02:33:08;;;;;;;;;;;;;;;;;;5076943;28;20379;-80
2023/11/17 02:35:35;;;;;;;;;;;;;;;;;;5090854;28;19928;-79
2023/11/17 02:38:04;;;;;;;;;;;;;;;;;;5092919;28;19959;-80
2023/11/17 02:40:31;;;;;;;;;;;;;;;;;;5093854;28;19931;-80
2023/11/17 02:42:58;;;;;;;;;;;;;;;;;;5093035;28;20409;-78
2023/11/17 02:45:26;;;;;;;;;;;;;;;;;;5087001;28;19967;-79
2023/11/17 02:47:56;;;;;;;;;;;;;;;;;;5072988;28;20015;-79
2023/11/17 02:50:31;;;;;;;;;;;;;;;;;;5078865;28;19925;-79
2023/11/17 02:53:10;;;;;;;;;;;;;;;;;;5087712;28;20024;-79
2023/11/17 02:55:37;;;;;;;;;;;;;;;;;;5090671;28;20367;-81
2023/11/17 02:58:04;;;;;;;;;;;;;;;;;;5092594;28;20019;-80
2023/11/17 03:00:31;;;;;;;;;;;;;;;;;;5091556;28;19931;-79
2023/11/17 03:02:58;;;;;;;;;;;;;;;;;;5091439;28;19924;-79
2023/11/17 03:05:26;;;;;;;;;;;;;;;;;;5090934;28;20291;-79
2023/11/17 03:07:53;;;;;;;;;;;;;;;;;;5085679;28;19924;-79
2023/11/17 03:10:20;;;;;;;;;;;;;;;;;;5082337;28;20089;-80
2023/11/17 03:12:48;;;;;;;;;;;;;;;;;;5082722;28;20019;-80
2023/11/17 03:15:15;;;;;;;;;;;;;;;;;;5083750;28;20342;-78
2023/11/17 03:17:42;;;;;;;;;;;;;;;;;;5088266;28;19932;-78
2023/11/17 03:20:14;;;;;;;;;;;;;;;;;;5089583;28;20368;-79
2023/11/17 03:22:44;;;;;;;;;;;;;;;;;;5089881;28;20584;-78
2023/11/17 03:25:15;;;;;;;;;;;;;;;;;;5091842;28;19924;-78
2023/11/17 03:27:42;;;;;;;;;;;;;;;;;;5085184;28;19931;-79
2023/11/17 03:30:09;;;;;;;;;;;;;;;;;;5082871;28;19924;-78
2023/11/17 03:32:36;;;;;;;;;;;;;;;;;;5083270;28;19978;-78
2023/11/17 03:35:03;;;;;;;;;;;;;;;;;;5081292;28;19925;-79
2023/11/17 03:37:30;;;;;;;;;;;;;;;;;;5087707;28;19953;-79
2023/11/17 03:39:58;;;;;;;;;;;;;;;;;;5081374;28;19977;-81
2023/11/17 03:42:25;;;;;;;;;;;;;;;;;;5090427;28;20401;-80
2023/11/17 03:44:57;;;;;;;;;;;;;;;;;;5092872;28;20272;-81
2023/11/17 03:47:24;;;;;;;;;;;;;;;;;;5091152;28;19931;-79
2023/11/17 03:49:50;;;;;;;;;;;;;;;;;;5091757;28;19979;-79
2023/11/17 03:52:21;;;;;;;;;;;;;;;;;;5090128;28;20016;-79
2023/11/17 03:54:48;;;;;;;;;;;;;;;;;;5092579;28;19981;-78
2023/11/17 03:57:15;;;;;;;;;;;;;;;;;;5091516;28;20098;-77
2023/11/17 03:59:46;;;;;;;;;;;;;;;;;;5088618;28;20355;-77
2023/11/17 04:02:13;;;;;;;;;;;;;;;;;;5075536;28;19967;-77
2023/11/17 04:04:40;;;;;;;;;;;;;;;;;;5091070;28;19924;-77
2023/11/17 04:07:08;;;;;;;;;;;;;;;;;;5092086;28;20371;-78
2023/11/17 04:09:35;;;;;;;;;;;;;;;;;;5092084;28;19928;-78
2023/11/17 04:12:02;;;;;;;;;;;;;;;;;;5091189;28;20040;-77
2023/11/17 04:14:29;;;;;;;;;;;;;;;;;;5091689;28;19930;-78
2023/11/17 04:16:57;;;;;;;;;;;;;;;;;;5088418;28;20364;-77
2023/11/17 04:19:25;;;;;;;;;;;;;;;;;;5086039;28;19999;-77
2023/11/17 04:21:52;;;;;;;;;;;;;;;;;;5089516;28;20351;-78
2023/11/17 04:24:19;;;;;;;;;;;;;;;;;;5072052;28;19924;-78
2023/11/17 04:26:46;;;;;;;;;;;;;;;;;;5078241;28;20011;-78
2023/11/17 04:29:13;;;;;;;;;;;;;;;;;;5092738;28;19925;-77
2023/11/17 04:31:41;;;;;;;;;;;;;;;;;;5090990;28;19931;-77
2023/11/17 04:34:11;;;;;;;;;;;;;;;;;;5091926;28;19928;-76
2023/11/17 04:36:38;;;;;;;;;;;;;;;;;;5086520;28;20390;-76
2023/11/17 04:39:11;;;;;;;;;;;;;;;;;;5091946;28;20473;-76
2023/11/17 04:41:38;;;;;;;;;;;;;;;;;;5087801;28;19942;-77
2023/11/17 04:44:05;;;;;;;;;;;;;;;;;;5090076;28;19929;-79
2023/11/17 04:46:32;;;;;;;;;;;;;;;;;;5084397;28;19935;-78
2023/11/17 04:48:59;;;;;;;;;;;;;;;;;;5089788;28;20011;-78
2023/11/17 04:51:26;;;;;;;;;;;;;;;;;;5087825;28;19925;-77
2023/11/17 04:53:53;;;;;;;;;;;;;;;;;;5072179;28;20035;-78
2023/11/17 04:56:20;;;;;;;;;;;;;;;;;;5075549;28;20068;-80
2023/11/17 04:58:48;;;;;;;;;;;;;;;;;;5091009;28;20023;-80
2023/11/17 05:01:15;;;;;;;;;;;;;;;;;;5087727;28;19932;-78
2023/11/17 05:03:43;;;;;;;;;;;;;;;;;;5082476;28;19967;-79
2023/11/17 05:06:10;;;;;;;;;;;;;;;;;;5090020;28;19930;-80
2023/11/17 05:08:37;;;;;;;;;;;;;;;;;;5090492;28;20022;-79
2023/11/17 05:11:05;;;;;;;;;;;;;;;;;;5077829;28;20015;-78
2023/11/17 05:13:32;;;;;;;;;;;;;;;;;;5093734;28;19931;-79
2023/11/17 05:16:00;;;;;;;;;;;;;;;;;;5094461;28;19967;-78
2023/11/17 05:18:27;;;;;;;;;;;;;;;;;;5089958;28;19972;-78
2023/11/17 05:20:54;;;;;;;;;;;;;;;;;;5086154;28;19964;-79
2023/11/17 05:23:21;;;;;;;;;;;;;;;;;;5090214;28;20003;-80
2023/11/17 05:25:48;;;;;;;;;;;;;;;;;;5095035;28;20019;-81
2023/11/17 05:28:15;;;;;;;;;;;;;;;;;;5088847;28;19928;-81
2023/11/17 05:30:42;;;;;;;;;;;;;;;;;;5095671;28;19978;-80
2023/11/17 05:33:09;;;;;;;;;;;;;;;;;;5095709;28;19978;-79
2023/11/17 05:35:37;;;;;;;;;;;;;;;;;;5094862;28;19928;-79
2023/11/17 05:38:04;;;;;;;;;;;;;;;;;;5094736;28;19931;-80
2023/11/17 05:40:33;;;;;;;;;;;;;;;;;;5090406;28;19924;-79
2023/11/17 05:43:00;;;;;;;;;;;;;;;;;;5094271;28;19924;-79
2023/11/17 05:45:27;;;;;;;;;;;;;;;;;;5084118;28;19928;-80
2023/11/17 05:47:54;;;;;;;;;;;;;;;;;;5078051;28;20391;-79
2023/11/17 05:50:21;;;;;;;;;;;;;;;;;;5077784;28;20471;-80
2023/11/17 05:52:49;;;;;;;;;;;;;;;;;;5090670;28;20293;-75
2023/11/17 05:55:17;;;;;;;;;;;;;;;;;;5083580;28;19924;-76
2023/11/17 05:57:44;;;;;;;;;;;;;;;;;;5093137;28;19931;-76
2023/11/17 06:00:13;;;;;;;;;;;;;;;;;;5092360;28;19993;-76
2023/11/17 06:02:40;;;;;;;;;;;;;;;;;;5092162;28;19967;-76
2023/11/17 06:05:08;;;;;;;;;;;;;;;;;;5094418;28;20332;-77
2023/11/17 06:07:35;;;;;;;;;;;;;;;;;;5085844;28;19931;-77
2023/11/17 06:10:02;;;;;;;;;;;;;;;;;;5073169;28;20450;-76
2023/11/17 06:12:30;;;;;;;;;;;;;;;;;;5079318;28;19989;-77
2023/11/17 06:14:57;;;;;;;;;;;;;;;;;;5082582;28;19982;-76
2023/11/17 06:17:28;;;;;;;;;;;;;;;;;;5088050;28;20506;-74
2023/11/17 06:19:57;;;;;;;;;;;;;;;;;;5085752;28;20295;-74
2023/11/17 06:22:24;;;;;;;;;;;;;;;;;;5089528;28;20038;-74
2023/11/17 06:24:52;;;;;;;;;;;;;;;;;;5087920;28;20331;-73
2023/11/17 06:27:25;;;;;;;;;;;;;;;;;;5091467;28;19931;-74
2023/11/17 06:29:52;;;;;;;;;;;;;;;;;;5088734;28;19978;-73
2023/11/17 06:32:22;;;;;;;;;;;;;;;;;;5084370;28;20352;-74
2023/11/17 06:34:50;;;;;;;;;;;;;;;;;;5085326;28;20451;-74
2023/11/17 06:37:17;;;;;;;;;;;;;;;;;;5074629;28;20023;-74
2023/11/17 06:39:44;;;;;;;;;;;;;;;;;;5088204;28;19924;-74
2023/11/17 06:42:13;;;;;;;;;;;;;;;;;;5073333;28;20387;-74
2023/11/17 06:44:40;;;;;;;;;;;;;;;;;;5076489;28;19943;-75
2023/11/17 06:47:08;;;;;;;;;;;;;;;;;;5085892;28;20011;-73
2023/11/17 06:49:35;;;;;;;;;;;;;;;;;;5073174;28;19940;-74
2023/11/17 06:52:07;;;;;;;;;;;;;;;;;;5082734;28;19924;-74
2023/11/17 06:54:34;;;;;;;;;;;;;;;;;;5093845;28;20018;-74
2023/11/17 06:57:01;;;;;;;;;;;;;;;;;;5093512;28;20018;-74
2023/11/17 06:59:28;;;;;;;;;;;;;;;;;;5091848;28;19924;-74
2023/11/17 07:01:55;;;;;;;;;;;;;;;;;;5088935;28;19951;-74
2023/11/17 07:04:22;;;;;;;;;;;;;;;;;;5089550;28;20018;-73
2023/11/17 07:06:49;;;;;;;;;;;;;;;;;;5086196;28;20272;-73
2023/11/17 07:09:22;;;;;;;;;;;;;;;;;;5088802;28;19977;-73
2023/11/17 07:11:49;;;;;;;;;;;;;;;;;;5085879;28;19924;-72
2023/11/17 07:14:19;;;;;;;;;;;;;;;;;;5086369;28;20086;-74
2023/11/17 07:16:46;;;;;;;;;;;;;;;;;;5085836;28;19986;-73
2023/11/17 07:19:16;;;;;;;;;;;;;;;;;;5079898;28;20379;-73
2023/11/17 07:21:43;;;;;;;;;;;;;;;;;;5081188;28;19928;-69
2023/11/17 07:24:11;;;;;;;;;;;;;;;;;;5088014;28;20393;-69
2023/11/17 07:26:38;;;;;;;;;;;;;;;;;;5087483;28;20015;-74
2023/11/17 07:29:05;;;;;;;;;;;;;;;;;;5091353;28;20455;-75
2023/11/17 07:31:37;;;;;;;;;;;;;;;;;;5094747;28;19924;-76
2023/11/17 07:34:05;;;;;;;;;;;;;;;;;;5083164;28;19933;-74
2023/11/17 07:36:32;;;;;;;;;;;;;;;;;;5091632;28;19925;-73
2023/11/17 07:39:02;;;;;;;;;;;;;;;;;;5092553;28;19977;-74
2023/11/17 07:41:29;;;;;;;;;;;;;;;;;;5093237;28;19969;-75
2023/11/17 07:43:57;;;;;;;;;;;;;;;;;;5084528;28;19978;-74
2023/11/17 07:46:25;;;;;;;;;;;;;;;;;;5074188;28;19924;-73
2023/11/17 07:48:52;;;;;;;;;;;;;;;;;;5082450;28;19959;-73
2023/11/17 07:51:19;;;;;;;;;;;;;;;;;;5083044;28;19924;-73
2023/11/17 07:53:46;;;;;;;;;;;;;;;;;;5090581;28;19924;-73
2023/11/17 07:56:13;;;;;;;;;;;;;;;;;;5091540;28;20341;-74
2023/11/17 07:58:40;;;;;;;;;;;;;;;;;;5104280;28;19924;-73
2023/11/17 08:01:09;;;;;;;;;;;;;;;;;;5094750;28;20071;-73
2023/11/17 08:03:36;;;;;;;;;;;;;;;;;;5082323;28;20330;-72
2023/11/17 08:06:03;;;;;;;;;;;;;;;;;;5082525;28;20318;-74
2023/11/17 08:08:30;;;;;;;;;;;;;;;;;;5087032;28;19932;-73
2023/11/17 08:10:57;;;;;;;;;;;;;;;;;;5088738;28;19936;-73
2023/11/17 08:13:25;;;;;;;;;;;;;;;;;;5089952;28;19962;-73
2023/11/17 08:15:54;;;;;;;;;;;;;;;;;;5080785;28;19970;-73
2023/11/17 08:18:21;;;;;;;;;;;;;;;;;;5084685;28;20315;-73
2023/11/17 08:20:48;;;;;;;;;;;;;;;;;;5079152;28;20294;-73
2023/11/17 08:23:15;;;;;;;;;;;;;;;;;;5080385;28;19924;-73
2023/11/17 08:25:43;;;;;;;;;;;;;;;;;;5079451;28;20023;-73
2023/11/17 08:28:10;;;;;;;;;;;;;;;;;;5091670;28;20311;-73
2023/11/17 08:30:37;;;;;;;;;;;;;;;;;;5084276;28;19963;-74
2023/11/17 08:33:04;;;;;;;;;;;;;;;;;;5087847;28;19978;-73
2023/11/17 08:35:31;;;;;;;;;;;;;;;;;;5093582;28;19924;-73
2023/11/17 08:37:58;;;;;;;;;;;;;;;;;;5088340;28;19974;-74
2023/11/17 08:40:25;;;;;;;;;;;;;;;;;;5079452;28;19959;-75
2023/11/17 08:42:52;;;;;;;;;;;;;;;;;;5089595;28;19967;-73
2023/11/17 08:45:19;;;;;;;;;;;;;;;;;;5089006;28;19931;-74
2023/11/17 08:47:46;;;;;;;;;;;;;;;;;;5076701;28;20007;-73
2023/11/17 08:50:13;;;;;;;;;;;;;;;;;;5077863;28;20031;-74
2023/11/17 08:52:40;;;;;;;;;;;;;;;;;;5084004;28;20007;-74
2023/11/17 08:55:10;;;;;;;;;;;;;;;;;;5090989;28;19928;-73
2023/11/17 08:57:37;;;;;;;;;;;;;;;;;;5083403;28;19977;-73
2023/11/17 09:00:11;;;;;;;;;;;;;;;;;;5083918;28;19927;-75
2023/11/17 09:02:38;;;;;;;;;;;;;;;;;;5078907;28;20008;-74
2023/11/17 09:05:05;;;;;;;;;;;;;;;;;;5088593;28;19924;-73
2023/11/17 09:07:32;;;;;;;;;;;;;;;;;;5090463;28;20307;-79
2023/11/17 09:09:59;;;;;;;;;;;;;;;;;;5089548;28;20022;-73
2023/11/17 09:12:27;;;;;;;;;;;;;;;;;;5088715;28;20405;-73
2023/11/17 09:14:55;;;;;;;;;;;;;;;;;;5080894;28;20268;-73
2023/11/17 09:17:22;;;;;;;;;;;;;;;;;;5087059;28;19925;-73
2023/11/17 09:19:49;;;;;;;;;;;;;;;;;;5089160;28;19924;-74
2023/11/17 09:22:16;;;;;;;;;;;;;;;;;;5074499;28;20019;-72
2023/11/17 09:24:43;;;;;;;;;;;;;;;;;;5074520;28;20031;-73
2023/11/17 09:27:10;;;;;;;;;;;;;;;;;;5076869;28;19930;-74
2023/11/17 09:29:37;;;;;;;;;;;;;;;;;;5082668;28;20019;-73
2023/11/17 09:32:05;;;;;;;;;;;;;;;;;;5088126;28;20023;-75
2023/11/17 09:34:34;;;;;;;;;;;;;;;;;;5074026;28;19924;-72
2023/11/17 09:37:02;;;;;;;;;;;;;;;;;;5090783;28;19924;-71
2023/11/17 09:39:29;;;;;;;;;;;;;;;;;;5088602;28;19924;-71
2023/11/17 09:41:56;;;;;;;;;;;;;;;;;;5089179;28;19924;-72
2023/11/17 09:44:24;;;;;;;;;;;;;;;;;;5079876;28;20023;-71
2023/11/17 09:46:51;;;;;;;;;;;;;;;;;;5083797;28;19924;-71
2023/11/17 09:49:18;;;;;;;;;;;;;;;;;;5089739;28;19997;-71
2023/11/17 09:51:46;;;;;;;;;;;;;;;;;;5080705;28;19924;-70
2023/11/17 09:54:13;;;;;;;;;;;;;;;;;;5088359;28;20374;-72
2023/11/17 09:56:41;;;;;;;;;;;;;;;;;;5077646;28;19924;-72
2023/11/17 09:59:09;;;;;;;;;;;;;;;;;;5080739;28;19931;-72
2023/11/17 10:01:36;;;;;;;;;;;;;;;;;;5085075;28;19931;-69
2023/11/17 10:04:05;;;;;;;;;;;;;;;;;;5082723;28;20268;-69
2023/11/17 10:06:32;;;;;;;;;;;;;;;;;;5091562;28;19924;-69
2023/11/17 10:09:00;;;;;;;;;;;;;;;;;;5084416;28;20366;-69
2023/11/17 10:11:26;;;;;;;;;;;;;;;;;;5081369;28;20019;-70
2023/11/17 10:13:53;;;;;;;;;;;;;;;;;;5090295;28;20017;-71
2023/11/17 10:16:21;;;;;;;;;;;;;;;;;;5081514;28;20027;-70
2023/11/17 10:18:48;;;;;;;;;;;;;;;;;;5086775;28;19924;-70
2023/11/17 10:21:15;;;;;;;;;;;;;;;;;;5075260;28;19924;-70
2023/11/17 10:23:45;;;;;;;;;;;;;;;;;;5085481;28;20397;-66
2023/11/17 10:26:12;;;;;;;;;;;;;;;;;;5080942;28;19967;-70
2023/11/17 10:28:39;;;;;;;;;;;;;;;;;;5086591;28;19963;-70
2023/11/17 10:31:07;;;;;;;;;;;;;;;;;;5086452;28;19925;-69
2023/11/17 10:33:34;;;;;;;;;;;;;;;;;;5085253;28;20410;-72
2023/11/17 10:36:00;;;;;;;;;;;;;;;;;;5080855;28;20080;-70
2023/11/17 10:38:27;;;;;;;;;;;;;;;;;;5090290;28;19924;-69
2023/11/17 10:40:55;;;;;;;;;;;;;;;;;;5091475;28;20022;-70
2023/11/17 10:43:22;;;;;;;;;;;;;;;;;;5085108;28;19929;-70
2023/11/17 10:45:50;;;;;;;;;;;;;;;;;;5082793;28;19969;-74
2023/11/17 10:48:18;;;;;;;;;;;;;;;;;;5083403;28;19935;-74
2023/11/17 10:50:45;;;;;;;;;;;;;;;;;;5084680;28;19924;-73
2023/11/17 10:53:13;;;;;;;;;;;;;;;;;;5088087;28;20298;-74
2023/11/17 10:55:42;;;;;;;;;;;;;;;;;;5083620;28;19975;-74
2023/11/17 10:58:13;;;;;;;;;;;;;;;;;;5083994;28;19924;-73
2023/11/17 11:00:40;;;;;;;;;;;;;;;;;;5084312;28;20303;-73
2023/11/17 11:03:07;;;;;;;;;;;;;;;;;;5081761;28;19924;-74
2023/11/17 11:05:34;;;;;;;;;;;;;;;;;;5101657;28;20306;-73
2023/11/17 11:08:06;;;;;;;;;;;;;;;;;;5079433;28;20065;-72
2023/11/17 11:10:34;;;;;;;;;;;;;;;;;;5081639;28;19929;-72
2023/11/17 11:13:02;;;;;;;;;;;;;;;;;;5084964;28;19925;-72
2023/11/17 11:15:29;;;;;;;;;;;;;;;;;;5080531;28;20015;-71
2023/11/17 11:17:58;;;;;;;;;;;;;;;;;;5086809;28;20015;-71
2023/11/17 11:20:25;;;;;;;;;;;;;;;;;;5075421;28;19970;-73
2023/11/17 11:22:52;;;;;;;;;;;;;;;;;;5090913;28;20385;-73
2023/11/17 11:25:19;;;;;;;;;;;;;;;;;;5080881;28;19928;-72
2023/11/17 11:27:46;;;;;;;;;;;;;;;;;;5078232;28;20015;-71
2023/11/17 11:30:13;;;;;;;;;;;;;;;;;;5078092;28;20023;-72
2023/11/17 11:32:40;;;;;;;;;;;;;;;;;;5092312;28;19964;-73
2023/11/17 11:35:07;;;;;;;;;;;;;;;;;;5091238;28;19993;-72
2023/11/17 11:37:34;;;;;;;;;;;;;;;;;;5087250;28;19933;-71
2023/11/17 11:40:02;;;;;;;;;;;;;;;;;;5092286;28;20348;-72
2023/11/17 11:42:29;;;;;;;;;;;;;;;;;;5091492;28;19924;-71
2023/11/17 11:44:56;;;;;;;;;;;;;;;;;;5091498;28;20020;-72
2023/11/17 11:47:24;;;;;;;;;;;;;;;;;;5092208;28;19967;-71
2023/11/17 11:49:52;;;;;;;;;;;;;;;;;;5091758;28;19974;-72
2023/11/17 11:52:19;;;;;;;;;;;;;;;;;;5091143;28;19924;-72
2023/11/17 11:54:46;;;;;;;;;;;;;;;;;;5081532;28;19924;-72
2023/11/17 11:57:13;;;;;;;;;;;;;;;;;;5092648;28;19967;-71
2023/11/17 11:59:40;;;;;;;;;;;;;;;;;;5088926;28;20007;-72
2023/11/17 12:02:07;;;;;;;;;;;;;;;;;;5083339;28;19924;-73
2023/11/17 12:04:34;;;;;;;;;;;;;;;;;;5090147;28;20012;-72
2023/11/17 12:07:01;;;;;;;;;;;;;;;;;;5092357;28;19993;-73
2023/11/17 12:09:28;;;;;;;;;;;;;;;;;;5075222;28;20379;-72
2023/11/17 12:11:57;;;;;;;;;;;;;;;;;;5084563;28;19923;-71
2023/11/17 12:14:24;;;;;;;;;;;;;;;;;;5088654;28;20015;-72
2023/11/17 12:16:53;;;;;;;;;;;;;;;;;;5080382;28;20011;-72
2023/11/17 12:19:20;;;;;;;;;;;;;;;;;;5084701;28;20085;-72
2023/11/17 12:21:48;;;;;;;;;;;;;;;;;;5086180;28;19925;-72
2023/11/17 12:24:22;;;;;;;;;;;;;;;;;;5075468;28;20015;-72
2023/11/17 12:26:49;;;;;;;;;;;;;;;;;;5074891;28;19990;-72
2023/11/17 12:29:17;;;;;;;;;;;;;;;;;;5085218;28;19977;-72
2023/11/17 12:31:44;;;;;;;;;;;;;;;;;;5091728;28;19924;-72
2023/11/17 12:34:11;;;;;;;;;;;;;;;;;;5085982;28;19932;-72
2023/11/17 12:36:39;;;;;;;;;;;;;;;;;;5084063;28;19931;-73
2023/11/17 12:39:06;;;;;;;;;;;;;;;;;;5085243;28;19936;-72
2023/11/17 12:41:33;;;;;;;;;;;;;;;;;;5082714;28;20011;-72
2023/11/17 12:44:00;;;;;;;;;;;;;;;;;;5090765;28;19974;-72
2023/11/17 12:46:27;;;;;;;;;;;;;;;;;;5081015;28;19932;-73
2023/11/17 12:48:54;;;;;;;;;;;;;;;;;;5087444;28;19970;-73
2023/11/17 12:51:21;;;;;;;;;;;;;;;;;;5086677;28;20023;-72
2023/11/17 12:53:49;;;;;;;;;;;;;;;;;;5078582;28;19925;-73
2023/11/17 12:56:16;;;;;;;;;;;;;;;;;;5090233;28;19931;-73
2023/11/17 12:58:43;;;;;;;;;;;;;;;;;;5086913;28;20007;-73
2023/11/17 13:01:14;;;;;;;;;;;;;;;;;;5079392;28;19924;-73
2023/11/17 13:03:41;;;;;;;;;;;;;;;;;;5085496;28;19932;-73
2023/11/17 13:06:08;;;;;;;;;;;;;;;;;;5080311;28;20056;-73
2023/11/17 13:08:35;;;;;;;;;;;;;;;;;;5075756;28;20002;-72
2023/11/17 13:11:02;;;;;;;;;;;;;;;;;;5081182;28;19924;-72
2023/11/17 13:13:29;;;;;;;;;;;;;;;;;;5088377;28;20268;-73
2023/11/17 13:15:56;;;;;;;;;;;;;;;;;;5089487;28;19977;-73
2023/11/17 13:18:23;;;;;;;;;;;;;;;;;;5088608;28;19924;-72
2023/11/17 13:20:50;;;;;;;;;;;;;;;;;;5084822;28;19951;-73
2023/11/17 13:23:17;;;;;;;;;;;;;;;;;;5091379;28;19928;-72
2023/11/17 13:25:44;;;;;;;;;;;;;;;;;;5085335;28;20021;-72
2023/11/17 13:28:11;;;;;;;;;;;;;;;;;;5087986;28;19960;-72
2023/11/17 13:30:40;;;;;;;;;;;;;;;;;;5083497;28;19925;-72
2023/11/17 13:33:08;;;;;;;;;;;;;;;;;;5091473;28;19938;-72
2023/11/17 13:35:35;;;;;;;;;;;;;;;;;;5092377;28;20007;-73
2023/11/17 13:38:03;;;;;;;;;;;;;;;;;;5090292;28;19924;-72
2023/11/17 13:40:32;;;;;;;;;;;;;;;;;;5083858;28;19970;-73
2023/11/17 13:42:59;;;;;;;;;;;;;;;;;;5081676;28;19924;-72
2023/11/17 13:45:27;;;;;;;;;;;;;;;;;;5083163;28;20024;-72
2023/11/17 13:47:54;;;;;;;;;;;;;;;;;;5092385;28;20003;-72
2023/11/17 13:50:21;;;;;;;;;;;;;;;;;;5091720;28;19946;-72
2023/11/17 13:52:48;;;;;;;;;;;;;;;;;;5081384;28;20306;-73
2023/11/17 13:55:18;;;;;;;;;;;;;;;;;;5094288;28;19924;-71
2023/11/17 13:57:45;;;;;;;;;;;;;;;;;;5087287;28;19976;-71
2023/11/17 14:00:12;;;;;;;;;;;;;;;;;;5083199;28;19967;-71
2023/11/17 14:02:41;;;;;;;;;;;;;;;;;;5087345;28;19963;-71
2023/11/17 14:05:11;;;;;;;;;;;;;;;;;;5085778;28;20339;-71
2023/11/17 14:07:38;;;;;;;;;;;;;;;;;;5089648;28;20405;-71
2023/11/17 14:10:06;;;;;;;;;;;;;;;;;;5089255;28;19982;-71
2023/11/17 14:12:35;;;;;;;;;;;;;;;;;;5088050;28;19925;-71
2023/11/17 14:15:03;;;;;;;;;;;;;;;;;;5088052;28;19973;-71
2023/11/17 14:17:30;;;;;;;;;;;;;;;;;;5086801;28;20016;-71
2023/11/17 14:19:59;;;;;;;;;;;;;;;;;;5089210;28;21046;-70
2023/11/17 14:22:26;;;;;;;;;;;;;;;;;;5088904;28;19931;-71
2023/11/17 14:24:55;;;;;;;;;;;;;;;;;;5084893;28;19943;-71
2023/11/17 14:27:22;;;;;;;;;;;;;;;;;;5084124;28;19932;-70
2023/11/17 14:29:52;;;;;;;;;;;;;;;;;;5087028;28;19970;-71
2023/11/17 14:32:19;;;;;;;;;;;;;;;;;;5075830;28;19928;-72
2023/11/17 14:34:49;;;;;;;;;;;;;;;;;;5081907;28;19935;-73
2023/11/17 14:37:16;;;;;;;;;;;;;;;;;;5084178;28;19931;-72
2023/11/17 14:39:43;;;;;;;;;;;;;;;;;;5078055;28;19992;-73
2023/11/17 14:42:10;;;;;;;;;;;;;;;;;;5076448;28;19932;-73
2023/11/17 14:44:38;;;;;;;;;;;;;;;;;;5085234;28;19936;-74
2023/11/17 14:47:05;;;;;;;;;;;;;;;;;;5083283;28;20299;-73
2023/11/17 14:49:32;;;;;;;;;;;;;;;;;;5079214;28;20032;-75
2023/11/17 14:52:03;;;;;;;;;;;;;;;;;;5079062;28;19932;-73
2023/11/17 14:54:30;;;;;;;;;;;;;;;;;;5083064;28;19931;-74
2023/11/17 14:56:57;;;;;;;;;;;;;;;;;;5085802;28;20266;-72
2023/11/17 14:59:24;;;;;;;;;;;;;;;;;;5087981;28;20015;-73
2023/11/17 15:01:51;;;;;;;;;;;;;;;;;;5081098;28;19932;-73
2023/11/17 15:04:19;;;;;;;;;;;;;;;;;;5090186;28;19924;-74
2023/11/17 15:06:47;;;;;;;;;;;;;;;;;;5091721;28;20350;-72
2023/11/17 15:09:16;;;;;;;;;;;;;;;;;;5089865;28;20114;-76
2023/11/17 15:11:44;;;;;;;;;;;;;;;;;;5086148;28;19946;-73
2023/11/17 15:14:15;;;;;;;;;;;;;;;;;;5086029;28;19954;-71
2023/11/17 15:16:42;;;;;;;;;;;;;;;;;;5081905;28;19980;-71
2023/11/17 15:19:12;;;;;;;;;;;;;;;;;;5078725;28;19925;-74
2023/11/17 15:21:43;;;;;;;;;;;;;;;;;;5073527;28;20033;-71
2023/11/17 15:24:19;;;;;;;;;;;;;;;;;;5080630;28;20300;-71
2023/11/17 15:26:46;;;;;;;;;;;;;;;;;;5083202;28;19936;-72
2023/11/17 15:29:14;;;;;;;;;;;;;;;;;;5083679;28;19939;-71
2023/11/17 15:31:46;;;;;;;;;;;;;;;;;;5084968;28;19924;-73
2023/11/17 15:34:15;;;;;;;;;;;;;;;;;;5080893;28;19942;-72
2023/11/17 15:36:42;;;;;;;;;;;;;;;;;;5083503;28;19924;-72
2023/11/17 15:39:14;;;;;;;;;;;;;;;;;;5087245;28;20467;-72
2023/11/17 15:41:41;;;;;;;;;;;;;;;;;;5078642;28;20474;-73
2023/11/17 15:44:10;;;;;;;;;;;;;;;;;;5084719;28;19924;-72
2023/11/17 15:46:39;;;;;;;;;;;;;;;;;;5087460;28;19924;-73
2023/11/17 15:49:11;;;;;;;;;;;;;;;;;;5087308;28;19930;-73
2023/11/17 15:51:40;;;;;;;;;;;;;;;;;;5079873;28;19967;-73
2023/11/17 15:54:08;;;;;;;;;;;;;;;;;;5091351;28;20011;-72
2023/11/17 15:56:37;;;;;;;;;;;;;;;;;;5086803;28;20359;-74
2023/11/17 15:59:04;;;;;;;;;;;;;;;;;;5089422;28;19977;-75
2023/11/17 16:01:31;;;;;;;;;;;;;;;;;;5086505;28;19924;-74
2023/11/17 16:04:00;;;;;;;;;;;;;;;;;;5086941;28;19924;-73
2023/11/17 16:06:29;;;;;;;;;;;;;;;;;;5090534;28;20030;-73
2023/11/17 16:08:56;;;;;;;;;;;;;;;;;;5080963;28;20326;-73
2023/11/17 16:11:25;;;;;;;;;;;;;;;;;;5080073;28;19972;-74
2023/11/17 16:13:55;;;;;;;;;;;;;;;;;;5083535;28;19967;-76
2023/11/17 16:16:25;;;;;;;;;;;;;;;;;;5085132;28;19928;-76
2023/11/17 16:18:54;;;;;;;;;;;;;;;;;;5089128;28;19924;-72
2023/11/17 16:21:23;;;;;;;;;;;;;;;;;;5084935;28;19931;-76
2023/11/17 16:23:50;;;;;;;;;;;;;;;;;;5083663;28;19990;-74
2023/11/17 16:26:17;;;;;;;;;;;;;;;;;;5080565;28;19931;-75
2023/11/17 16:28:46;;;;;;;;;;;;;;;;;;5088458;28;19924;-71
2023/11/17 16:31:24;;;;;;;;;;;;;;;;;;5088696;28;19924;-76
2023/11/17 16:33:59;;;;;;;;;;;;;;;;;;5087925;28;20387;-75
2023/11/17 16:36:27;;;;;;;;;;;;;;;;;;5089436;28;19924;-74
2023/11/17 16:38:54;;;;;;;;;;;;;;;;;;5090346;28;20001;-75
2023/11/17 16:41:25;;;;;;;;;;;;;;;;;;5085392;28;20417;-75
2023/11/17 16:43:52;;;;;;;;;;;;;;;;;;5077476;28;20398;-74
2023/11/17 16:46:20;;;;;;;;;;;;;;;;;;5075476;28;19930;-74
2023/11/17 16:48:49;;;;;;;;;;;;;;;;;;5079207;28;20040;-74